createdAt,value
2022-09-06T00:00:18.285Z,3.90
2022-09-06T00:02:47.670Z,4.00
2022-09-06T00:05:16.878Z,3.90
2022-09-06T00:07:45.706Z,3.90
2022-09-06T00:10:15.479Z,3.90
2022-09-06T00:12:45.746Z,3.90
2022-09-06T00:15:14.796Z,3.90
2022-09-06T00:17:45.154Z,3.90
2022-09-06T00:20:14.066Z,3.80
2022-09-06T00:22:44.281Z,3.80
2022-09-06T00:25:13.086Z,3.80
2022-09-06T00:27:42.052Z,3.80
2022-09-06T00:30:14.187Z,3.80
2022-09-06T00:32:43.034Z,3.80
2022-09-06T00:35:11.867Z,3.80
2022-09-06T00:37:40.776Z,3.80
2022-09-06T00:40:10.970Z,3.80
2022-09-06T00:42:39.886Z,3.80
2022-09-06T00:45:12.725Z,3.80
2022-09-06T00:47:44.036Z,3.70
2022-09-06T00:50:15.097Z,3.70
2022-09-06T00:52:46.264Z,3.70
2022-09-06T00:55:15.566Z,3.70
2022-09-06T00:57:47.189Z,3.70
2022-09-06T01:00:18.208Z,3.70
2022-09-06T01:02:47.553Z,3.70
2022-09-06T01:05:17.990Z,3.70
2022-09-06T01:08:00.565Z,3.70
2022-09-06T01:10:42.298Z,3.70
2022-09-06T01:13:22.639Z,3.70
2022-09-06T01:16:00.249Z,3.60
2022-09-06T01:18:40.670Z,3.60
2022-09-06T01:21:20.550Z,3.60
2022-09-06T01:24:20.683Z,3.60
2022-09-06T01:27:22.516Z,3.60
2022-09-06T01:29:57.012Z,3.50
2022-09-06T01:32:32.015Z,3.50
2022-09-06T01:35:07.652Z,3.50
2022-09-06T01:37:36.691Z,3.50
2022-09-06T01:40:06.230Z,3.50
2022-09-06T01:42:36.387Z,3.50
2022-09-06T01:45:09.910Z,3.50
2022-09-06T01:47:48.010Z,3.50
2022-09-06T01:50:47.786Z,3.50
2022-09-06T01:53:33.409Z,3.40
2022-09-06T01:56:14.070Z,3.40
2022-09-06T01:59:20.239Z,3.30
2022-09-06T02:02:02.811Z,3.30
2022-09-06T02:04:40.057Z,3.30
2022-09-06T02:07:14.890Z,3.30
2022-09-06T02:09:50.243Z,3.20
2022-09-06T02:15:18.803Z,3.20
2022-09-06T02:17:55.759Z,3.20
2022-09-06T02:23:34.390Z,3.20
2022-09-06T02:26:15.891Z,3.20
2022-09-06T02:28:49.253Z,3.10
2022-09-06T02:31:27.655Z,3.10
2022-09-06T02:34:12.708Z,3.00
2022-09-06T02:36:46.589Z,3.00
2022-09-06T02:39:16.569Z,2.90
2022-09-06T02:41:52.715Z,3.00
2022-09-06T02:44:57.442Z,2.90
2022-09-06T02:47:28.964Z,2.90
2022-09-06T02:53:21.431Z,2.90
2022-09-06T02:56:05.023Z,2.90
2022-09-06T02:58:36.641Z,2.80
2022-09-06T03:01:13.042Z,2.80
2022-09-06T03:03:46.723Z,2.80
2022-09-06T03:06:20.505Z,2.70
2022-09-06T03:09:05.744Z,2.70
2022-09-06T03:11:43.145Z,2.70
2022-09-06T03:17:44.527Z,2.60
2022-09-06T03:20:23.663Z,2.60
2022-09-06T03:22:59.920Z,2.50
2022-09-06T03:25:34.629Z,2.50
2022-09-06T03:28:06.984Z,2.40
2022-09-06T03:30:55.674Z,2.40
2022-09-06T03:33:41.864Z,2.40
2022-09-06T03:39:23.852Z,2.40
2022-09-06T03:42:04.391Z,2.40
2022-09-06T03:44:34.809Z,2.40
2022-09-06T03:47:04.771Z,2.30
2022-09-06T03:49:39.283Z,2.40
2022-09-06T03:52:24.789Z,2.30
2022-09-06T03:57:46.027Z,2.30
2022-09-06T04:00:19.225Z,2.30
2022-09-06T04:03:01.842Z,2.40
2022-09-06T04:05:37.149Z,2.40
2022-09-06T04:08:09.621Z,2.40
2022-09-06T04:10:43.970Z,2.40
2022-09-06T04:13:16.670Z,2.40
2022-09-06T04:15:55.743Z,2.50
2022-09-06T04:18:36.386Z,2.40
2022-09-06T04:21:07.725Z,2.40
2022-09-06T04:23:42.500Z,2.50
2022-09-06T04:26:13.799Z,2.60
2022-09-06T04:28:44.664Z,2.60
2022-09-06T04:31:18.202Z,2.60
2022-09-06T04:33:50.917Z,2.70
2022-09-06T04:36:26.755Z,2.70
2022-09-06T04:39:04.430Z,2.90
2022-09-06T04:41:35.167Z,2.90
2022-09-06T04:44:04.668Z,3.00
2022-09-06T04:46:41.027Z,3.10
2022-09-06T04:49:17.050Z,3.20
2022-09-06T04:51:49.917Z,3.30
2022-09-06T04:54:25.131Z,3.40
2022-09-06T04:56:59.768Z,3.40
2022-09-06T04:59:39.421Z,3.50
2022-09-06T05:02:11.028Z,3.60
2022-09-06T05:04:46.590Z,3.70
2022-09-06T05:07:24.657Z,3.70
2022-09-06T05:09:56.387Z,3.80
2022-09-06T05:12:49.669Z,3.90
2022-09-06T05:15:20.509Z,4.00
2022-09-06T05:18:06.559Z,4.10
2022-09-06T05:20:47.866Z,4.20
2022-09-06T05:23:25.623Z,4.40
2022-09-06T05:26:15.648Z,4.60
2022-09-06T05:28:54.128Z,4.70
2022-09-06T05:31:34.518Z,4.90
2022-09-06T05:34:07.874Z,5.10
2022-09-06T05:36:39.138Z,5.20
2022-09-06T05:39:08.208Z,5.40
2022-09-06T05:41:50.130Z,5.50
2022-09-06T05:47:15.851Z,5.80
2022-09-06T05:49:52.740Z,6.00
2022-09-06T05:52:28.466Z,6.20
2022-09-06T05:55:08.927Z,6.40
2022-09-06T05:57:44.787Z,6.60
2022-09-06T06:00:26.981Z,6.70
2022-09-06T06:03:11.849Z,6.90
2022-09-06T06:06:16.788Z,7.10
2022-09-06T06:08:52.133Z,7.30
2022-09-06T06:11:24.901Z,7.50
2022-09-06T06:14:03.689Z,7.70
2022-09-06T06:16:41.598Z,7.90
2022-09-06T06:19:15.836Z,8.10
2022-09-06T06:21:51.433Z,8.30
2022-09-06T06:24:28.627Z,8.50
2022-09-06T06:27:09.168Z,8.70
2022-09-06T06:29:41.518Z,8.90
2022-09-06T06:32:14.932Z,9.20
2022-09-06T06:34:44.206Z,9.30
2022-09-06T06:37:13.302Z,9.50
2022-09-06T06:39:44.883Z,9.70
2022-09-06T06:42:18.651Z,9.80
2022-09-06T06:44:53.805Z,10.00
2022-09-06T06:47:31.632Z,10.30
2022-09-06T06:50:05.708Z,10.40
2022-09-06T06:52:37.170Z,10.70
2022-09-06T06:55:11.883Z,10.90
2022-09-06T06:57:43.955Z,11.10
2022-09-06T07:00:15.897Z,11.30
2022-09-06T07:02:50.064Z,11.50
2022-09-06T07:08:16.994Z,11.90
2022-09-06T07:10:48.513Z,12.20
2022-09-06T07:13:25.788Z,12.40
2022-09-06T07:16:11.852Z,12.50
2022-09-06T07:18:50.720Z,12.70
2022-09-06T07:24:33.640Z,13.00
2022-09-06T07:27:48.879Z,13.10
2022-09-06T07:30:20.099Z,13.20
2022-09-06T07:32:49.382Z,13.40
2022-09-06T07:35:27.661Z,13.50
2022-09-06T07:38:03.093Z,13.70
2022-09-06T07:40:34.905Z,13.90
2022-09-06T07:43:13.761Z,14.00
2022-09-06T07:45:45.950Z,14.00
2022-09-06T07:48:29.107Z,14.20
2022-09-06T07:51:11.672Z,14.30
2022-09-06T07:53:57.877Z,14.40
2022-09-06T07:56:57.537Z,14.60
2022-09-06T07:59:46.604Z,14.70
2022-09-06T08:13:50.849Z,15.10
2022-09-06T08:16:27.752Z,15.00
2022-09-06T08:19:15.443Z,15.10
2022-09-06T08:21:50.875Z,14.90
2022-09-06T08:24:29.846Z,14.70
2022-09-06T08:26:58.942Z,14.70
2022-09-06T08:29:28.014Z,14.50
2022-09-06T08:32:03.592Z,14.90
2022-09-06T08:34:49.974Z,15.00
2022-09-06T08:37:25.076Z,15.20
2022-09-06T08:40:08.584Z,15.60
2022-09-06T08:42:55.448Z,16.20
2022-09-06T08:45:33.611Z,16.90
2022-09-06T08:48:07.580Z,17.00
2022-09-06T08:50:48.629Z,17.30
2022-09-06T08:53:25.527Z,17.60
2022-09-06T08:56:06.140Z,17.50
2022-09-06T08:59:07.747Z,17.20
2022-09-06T09:01:57.813Z,17.10
2022-09-06T09:04:31.039Z,16.80
2022-09-06T09:07:13.831Z,16.40
2022-09-06T09:09:50.721Z,16.40
2022-09-06T09:12:30.802Z,16.80
2022-09-06T09:15:11.893Z,17.10
2022-09-06T09:17:53.787Z,17.60
2022-09-06T09:20:27.999Z,17.80
2022-09-06T09:22:58.111Z,18.50
2022-09-06T09:25:27.246Z,19.00
2022-09-06T09:28:07.632Z,19.20
2022-09-06T09:30:51.822Z,19.20
2022-09-06T09:33:33.269Z,19.40
2022-09-06T09:36:07.941Z,18.80
2022-09-06T09:38:44.652Z,18.30
2022-09-06T09:41:30.932Z,17.60
2022-09-06T09:44:06.600Z,17.30
2022-09-06T09:46:40.808Z,17.00
2022-09-06T09:52:14.249Z,17.50
2022-09-06T09:54:48.910Z,17.60
2022-09-06T09:57:24.231Z,17.80
2022-09-06T10:00:01.645Z,18.10
2022-09-06T10:02:46.809Z,18.10
2022-09-06T10:05:28.749Z,18.20
2022-09-06T10:08:03.752Z,18.40
2022-09-06T10:10:41.537Z,18.70
2022-09-06T10:13:28.554Z,18.80
2022-09-06T10:16:14.091Z,19.00
2022-09-06T10:18:45.437Z,19.30
2022-09-06T10:21:16.429Z,19.50
2022-09-06T10:26:58.717Z,19.50
2022-09-06T10:29:45.596Z,19.20
2022-09-06T10:32:36.507Z,19.20
2022-09-06T10:35:18.021Z,19.20
2022-09-06T10:38:26.824Z,19.20
2022-09-06T10:41:26.664Z,19.50
2022-09-06T10:44:14.226Z,19.90
2022-09-06T10:50:02.332Z,19.80
2022-09-06T10:52:42.994Z,20.10
2022-09-06T10:55:33.672Z,19.50
2022-09-06T11:00:51.798Z,19.40
2022-09-06T11:06:31.399Z,19.30
2022-09-06T11:09:12.104Z,19.20
2022-09-06T11:14:41.206Z,18.60
2022-09-06T11:17:16.254Z,18.10
2022-09-06T11:19:55.153Z,18.20
2022-09-06T11:26:11.716Z,18.00
2022-09-06T11:28:52.507Z,18.10
2022-09-06T11:34:27.049Z,17.50
2022-09-06T11:37:13.512Z,17.20
2022-09-06T11:43:03.071Z,17.00
2022-09-06T11:45:51.663Z,17.50
2022-09-06T11:48:52.423Z,18.20
2022-09-06T11:51:42.566Z,18.90
2022-09-06T11:54:27.743Z,19.60
2022-09-06T11:57:13.793Z,20.00
2022-09-06T12:00:00.839Z,20.20
2022-09-06T12:02:41.224Z,20.50
2022-09-06T12:05:22.886Z,20.20
2022-09-06T12:08:29.435Z,19.80
2022-09-06T12:11:06.608Z,19.40
2022-09-06T12:13:49.493Z,19.10
2022-09-06T12:16:26.017Z,19.20
2022-09-06T12:18:59.708Z,19.30
2022-09-06T12:21:47.653Z,19.30
2022-09-06T12:24:53.758Z,19.30
2022-09-06T12:27:28.708Z,19.40
2022-09-06T12:30:03.165Z,19.40
2022-09-06T12:32:50.863Z,19.40
2022-09-06T12:38:32.242Z,18.90
2022-09-06T12:41:07.936Z,18.80
2022-09-06T12:43:43.653Z,18.60
2022-09-06T12:46:17.627Z,18.60
2022-09-06T12:51:55.725Z,18.50
2022-09-06T12:54:32.716Z,18.50
2022-09-06T12:57:18.394Z,18.60
2022-09-06T13:00:00.605Z,18.60
2022-09-06T13:02:45.866Z,18.60
2022-09-06T13:05:24.185Z,18.50
2022-09-06T13:07:55.935Z,18.50
2022-09-06T13:10:28.045Z,18.60
2022-09-06T13:13:01.291Z,18.70
2022-09-06T13:15:41.096Z,19.00
2022-09-06T13:18:36.074Z,19.10
2022-09-06T13:21:15.539Z,19.00
2022-09-06T13:24:07.074Z,19.00
2022-09-06T13:26:44.636Z,18.80
2022-09-06T13:32:21.754Z,18.60
2022-09-06T13:34:59.922Z,18.60
2022-09-06T13:37:35.707Z,18.50
2022-09-06T13:41:10.537Z,18.10
2022-09-06T13:43:52.940Z,17.80
2022-09-06T13:46:22.400Z,17.90
2022-09-06T13:48:51.447Z,17.60
2022-09-06T13:51:29.227Z,17.50
2022-09-06T13:54:21.614Z,17.50
2022-09-06T13:56:57.570Z,17.80
2022-09-06T13:59:43.750Z,17.60
2022-09-06T14:02:24.025Z,17.50
2022-09-06T14:04:53.882Z,17.50
2022-09-06T14:07:24.810Z,17.50
2022-09-06T14:09:54.217Z,17.50
2022-09-06T14:12:23.474Z,17.70
2022-09-06T14:14:52.800Z,17.80
2022-09-06T14:17:22.329Z,17.70
2022-09-06T14:19:51.409Z,17.80
2022-09-06T14:22:20.556Z,17.80
2022-09-06T14:24:51.379Z,17.80
2022-09-06T14:27:21.365Z,17.80
2022-09-06T14:29:50.522Z,17.80
2022-09-06T14:32:22.517Z,17.70
2022-09-06T14:34:52.158Z,17.50
2022-09-06T14:37:21.960Z,17.50
2022-09-06T14:39:52.836Z,17.40
2022-09-06T14:42:24.910Z,17.30
2022-09-06T14:44:54.659Z,17.20
2022-09-06T14:47:23.986Z,17.20
2022-09-06T14:49:53.148Z,17.10
2022-09-06T14:52:22.440Z,17.00
2022-09-06T14:54:53.207Z,16.90
2022-09-06T14:57:22.695Z,16.80
2022-09-06T14:59:52.656Z,16.80
2022-09-06T15:02:42.097Z,16.70
2022-09-06T15:08:22.712Z,16.50
2022-09-06T15:11:01.774Z,16.40
2022-09-06T15:13:31.090Z,16.30
2022-09-06T15:16:00.522Z,16.30
2022-09-06T15:18:31.214Z,16.20
2022-09-06T15:21:00.194Z,16.00
2022-09-06T15:23:29.498Z,15.90
2022-09-06T15:26:01.426Z,15.90
2022-09-06T15:28:30.644Z,15.90
2022-09-06T15:30:59.985Z,15.80
2022-09-06T15:33:31.326Z,15.80
2022-09-06T15:36:00.905Z,15.70
2022-09-06T15:38:30.135Z,15.70
2022-09-06T15:41:08.467Z,15.60
2022-09-06T15:43:38.194Z,15.50
2022-09-06T15:46:07.806Z,15.40
2022-09-06T15:48:43.381Z,15.40
2022-09-06T15:51:14.262Z,15.30
2022-09-06T15:56:46.560Z,15.00
2022-09-06T16:01:58.315Z,14.80
2022-09-06T16:04:28.030Z,14.70
2022-09-06T16:06:57.831Z,14.60
2022-09-06T16:09:27.157Z,14.50
2022-09-06T16:11:57.716Z,14.40
2022-09-06T16:14:28.562Z,14.30
2022-09-06T16:16:57.867Z,14.20
2022-09-06T16:19:27.691Z,14.10
2022-09-06T16:21:56.820Z,14.00
2022-09-06T16:24:25.824Z,13.90
2022-09-06T16:26:55.118Z,13.80
2022-09-06T16:29:27.433Z,13.70
2022-09-06T16:32:00.087Z,13.50
2022-09-06T16:34:29.808Z,13.40
2022-09-06T16:37:00.520Z,13.30
2022-09-06T16:39:29.874Z,13.20
2022-09-06T16:41:59.385Z,13.10
2022-09-06T16:44:31.635Z,12.90
2022-09-06T16:47:01.999Z,12.80
2022-09-06T16:49:31.467Z,12.70
2022-09-06T16:52:01.910Z,12.60
2022-09-06T16:54:31.468Z,12.50
2022-09-06T16:57:00.507Z,12.30
2022-09-06T16:59:30.949Z,12.20
2022-09-06T17:02:00.358Z,12.10
2022-09-06T17:04:29.718Z,12.00
2022-09-06T17:06:58.850Z,11.80
2022-09-06T17:09:27.787Z,11.80
2022-09-06T17:11:56.886Z,11.60
2022-09-06T17:14:26.266Z,11.60
2022-09-06T17:17:07.653Z,11.50
2022-09-06T17:19:38.283Z,11.40
2022-09-06T17:22:07.614Z,11.30
2022-09-06T17:24:37.259Z,11.20
2022-09-06T17:27:07.088Z,11.10
2022-09-06T17:29:37.994Z,11.00
2022-09-06T17:32:10.959Z,10.90
2022-09-06T17:34:41.095Z,10.80
2022-09-06T17:37:12.656Z,10.70
2022-09-06T17:39:42.728Z,10.60
2022-09-06T17:42:11.905Z,10.50
2022-09-06T17:44:41.655Z,10.40
2022-09-06T17:47:13.921Z,10.30
2022-09-06T17:49:43.920Z,10.20
2022-09-06T17:52:14.605Z,10.10
2022-09-06T17:54:47.173Z,10.00
2022-09-06T17:57:16.561Z,9.90
2022-09-06T17:59:46.169Z,9.80
2022-09-06T18:02:17.931Z,9.80
2022-09-06T18:04:47.783Z,9.70
2022-09-06T18:07:18.291Z,9.60
2022-09-06T18:09:48.457Z,9.50
2022-09-06T18:12:21.207Z,9.40
2022-09-06T18:14:51.143Z,9.40
2022-09-06T18:17:25.093Z,9.30
2022-09-06T18:19:55.312Z,9.20
2022-09-06T18:22:26.409Z,9.10
2022-09-06T18:24:58.500Z,9.10
2022-09-06T18:27:28.951Z,9.00
2022-09-06T18:29:58.345Z,8.90
2022-09-06T18:32:31.905Z,8.80
2022-09-06T18:35:01.590Z,8.80
2022-09-06T18:37:32.072Z,8.70
2022-09-06T18:40:06.798Z,8.70
2022-09-06T18:42:37.169Z,8.60
2022-09-06T18:45:07.995Z,8.60
2022-09-06T18:47:39.450Z,8.50
2022-09-06T18:50:11.661Z,8.40
2022-09-06T18:52:42.585Z,8.40
2022-09-06T18:55:14.124Z,8.30
2022-09-06T18:57:44.089Z,8.30
2022-09-06T19:00:14.842Z,8.20
2022-09-06T19:02:46.578Z,8.10
2022-09-06T19:05:16.425Z,8.10
2022-09-06T19:07:46.111Z,8.00
2022-09-06T19:10:15.745Z,8.00
2022-09-06T19:12:46.318Z,7.90
2022-09-06T19:15:17.548Z,7.80
2022-09-06T19:17:51.224Z,7.80
2022-09-06T19:20:21.231Z,7.70
2022-09-06T19:22:53.822Z,7.70
2022-09-06T19:25:23.828Z,7.60
2022-09-06T19:27:54.284Z,7.60
2022-09-06T19:30:23.677Z,7.50
2022-09-06T19:32:54.617Z,7.40
2022-09-06T19:35:24.143Z,7.40
2022-09-06T19:37:55.581Z,7.30
2022-09-06T19:40:26.873Z,7.30
2022-09-06T19:42:57.310Z,7.20
2022-09-06T19:45:26.767Z,7.20
2022-09-06T19:47:57.950Z,7.10
2022-09-06T19:50:27.419Z,7.10
2022-09-06T19:52:58.282Z,7.00
2022-09-06T19:55:27.692Z,7.00
2022-09-06T19:57:58.300Z,6.90
2022-09-06T20:00:32.324Z,6.90
2022-09-06T20:03:05.940Z,6.90
2022-09-06T20:05:35.296Z,6.80
2022-09-06T20:08:05.137Z,6.80
2022-09-06T20:10:35.739Z,6.80
2022-09-06T20:13:05.534Z,6.70
2022-09-06T20:15:40.098Z,6.70
2022-09-06T20:18:10.898Z,6.60
2022-09-06T20:20:40.278Z,6.60
2022-09-06T20:23:10.473Z,6.50
2022-09-06T20:25:40.757Z,6.50
2022-09-06T20:28:11.828Z,6.50
2022-09-06T20:30:45.329Z,6.40
2022-09-06T20:33:16.999Z,6.40
2022-09-06T20:35:46.519Z,6.40
2022-09-06T20:38:16.624Z,6.30
2022-09-06T20:40:47.069Z,6.30
2022-09-06T20:43:16.845Z,6.20
2022-09-06T20:45:47.495Z,6.20
2022-09-06T20:48:18.534Z,6.10
2022-09-06T20:50:47.943Z,6.10
2022-09-06T20:53:17.417Z,6.00
2022-09-06T20:55:50.184Z,6.00
2022-09-06T20:58:23.216Z,6.00
2022-09-06T21:00:53.140Z,5.90
2022-09-06T21:03:26.825Z,5.90
2022-09-06T21:05:57.031Z,5.80
2022-09-06T21:08:31.733Z,5.80
2022-09-06T21:11:08.375Z,5.70
2022-09-06T21:14:18.904Z,5.70
2022-09-06T21:16:48.318Z,5.60
2022-09-06T21:19:24.205Z,5.60
2022-09-06T21:22:10.446Z,5.60
2022-09-06T21:24:40.026Z,5.60
2022-09-06T21:27:27.194Z,5.50
2022-09-06T21:30:05.616Z,5.50
2022-09-06T21:32:34.716Z,5.50
2022-09-06T21:35:22.004Z,5.50
2022-09-06T21:38:14.476Z,5.50
2022-09-06T21:43:57.884Z,5.40
2022-09-06T21:46:32.601Z,5.40
2022-09-06T21:49:05.296Z,5.40
2022-09-06T21:51:39.303Z,5.30
2022-09-06T21:54:41.808Z,5.30
2022-09-06T21:57:35.786Z,5.30
2022-09-06T22:00:08.225Z,5.20
2022-09-06T22:02:37.776Z,5.10
2022-09-06T22:05:28.781Z,5.10
2022-09-06T22:08:03.053Z,5.10
2022-09-06T22:10:37.805Z,5.10
2022-09-06T22:13:08.111Z,5.00
2022-09-06T22:15:41.952Z,5.00
2022-09-06T22:18:11.694Z,5.00
2022-09-06T22:20:40.924Z,4.90
2022-09-06T22:23:11.619Z,4.90
2022-09-06T22:25:41.420Z,4.90
2022-09-06T22:28:11.114Z,4.80
2022-09-06T22:30:41.879Z,4.80
2022-09-06T22:33:12.222Z,4.80
2022-09-06T22:35:41.561Z,4.80
2022-09-06T22:38:12.014Z,4.70
2022-09-06T22:40:41.074Z,4.70
2022-09-06T22:43:10.372Z,4.70
2022-09-06T22:45:39.711Z,4.60
2022-09-06T22:48:09.398Z,4.60
2022-09-06T22:50:38.491Z,4.50
2022-09-06T22:53:07.525Z,4.50
2022-09-06T22:55:38.554Z,4.50
2022-09-06T22:58:08.590Z,4.50
2022-09-06T23:00:40.647Z,4.40
2022-09-06T23:03:09.735Z,4.40
2022-09-06T23:05:39.031Z,4.30
2022-09-06T23:08:08.404Z,4.30
2022-09-06T23:10:43.934Z,4.30
2022-09-06T23:13:13.574Z,4.30
2022-09-06T23:15:43.130Z,4.30
2022-09-06T23:18:12.497Z,4.20
2022-09-06T23:20:42.063Z,4.20
2022-09-06T23:23:11.305Z,4.20
2022-09-06T23:25:41.976Z,4.20
2022-09-06T23:28:11.097Z,4.10
2022-09-06T23:30:40.325Z,4.10
2022-09-06T23:33:09.537Z,4.10
2022-09-06T23:35:40.632Z,4.10
2022-09-06T23:38:14.477Z,4.10
2022-09-06T23:40:49.870Z,4.10
2022-09-06T23:43:20.840Z,4.00
2022-09-06T23:46:00.945Z,4.00
2022-09-06T23:48:35.410Z,4.00
2022-09-06T23:51:15.881Z,3.90
2022-09-06T23:53:46.105Z,4.00
2022-09-06T23:56:17.321Z,3.90
2022-09-06T23:58:51.976Z,3.90
